sensor_id;sensor_type;location;lat;lon;timestamp;P1;durP1;ratioP1;P2;durP2;ratioP2
58954;SDS011;45815;52.334;5.024;2023-11-21T00:01:25;18.38;;;8.95;;
58954;SDS011;45815;52.334;5.024;2023-11-21T00:03:50;15.40;;;8.90;;
58954;SDS011;45815;52.334;5.024;2023-11-21T00:06:17;18.85;;;9.32;;
58954;SDS011;45815;52.334;5.024;2023-11-21T00:08:43;17.58;;;9.70;;
58954;SDS011;45815;52.334;5.024;2023-11-21T00:11:08;17.50;;;9.48;;
58954;SDS011;45815;52.334;5.024;2023-11-21T00:13:33;15.73;;;9.27;;
58954;SDS011;45815;52.334;5.024;2023-11-21T00:16:00;18.67;;;9.75;;
58954;SDS011;45815;52.334;5.024;2023-11-21T00:18:25;18.90;;;9.48;;
58954;SDS011;45815;52.334;5.024;2023-11-21T00:20:50;18.88;;;9.68;;
58954;SDS011;45815;52.334;5.024;2023-11-21T00:23:16;18.40;;;9.73;;
58954;SDS011;45815;52.334;5.024;2023-11-21T00:25:41;16.23;;;9.60;;
58954;SDS011;45815;52.334;5.024;2023-11-21T00:28:07;18.40;;;9.75;;
58954;SDS011;45815;52.334;5.024;2023-11-21T00:30:32;19.40;;;9.20;;
58954;SDS011;45815;52.334;5.024;2023-11-21T00:32:58;15.48;;;9.00;;
58954;SDS011;45815;52.334;5.024;2023-11-21T00:35:24;19.00;;;8.80;;
58954;SDS011;45815;52.334;5.024;2023-11-21T00:37:50;18.23;;;10.00;;
58954;SDS011;45815;52.334;5.024;2023-11-21T00:40:15;16.88;;;8.68;;
58954;SDS011;45815;52.334;5.024;2023-11-21T00:42:41;17.48;;;8.77;;
58954;SDS011;45815;52.334;5.024;2023-11-21T00:45:07;19.25;;;9.15;;
58954;SDS011;45815;52.334;5.024;2023-11-21T00:47:32;19.17;;;9.85;;
58954;SDS011;45815;52.334;5.024;2023-11-21T00:49:58;17.48;;;9.38;;
58954;SDS011;45815;52.334;5.024;2023-11-21T00:52:24;18.05;;;9.20;;
58954;SDS011;45815;52.334;5.024;2023-11-21T00:54:50;21.02;;;9.60;;
58954;SDS011;45815;52.334;5.024;2023-11-21T00:57:16;23.02;;;10.00;;
58954;SDS011;45815;52.334;5.024;2023-11-21T00:59:41;15.48;;;8.60;;
58954;SDS011;45815;52.334;5.024;2023-11-21T01:02:07;24.20;;;9.55;;
58954;SDS011;45815;52.334;5.024;2023-11-21T01:04:35;17.92;;;8.68;;
58954;SDS011;45815;52.334;5.024;2023-11-21T01:07:00;21.50;;;9.20;;
58954;SDS011;45815;52.334;5.024;2023-11-21T01:09:26;20.40;;;8.93;;
58954;SDS011;45815;52.334;5.024;2023-11-21T01:11:51;16.90;;;8.40;;
58954;SDS011;45815;52.334;5.024;2023-11-21T01:14:17;17.98;;;8.68;;
58954;SDS011;45815;52.334;5.024;2023-11-21T01:16:42;16.73;;;8.52;;
58954;SDS011;45815;52.334;5.024;2023-11-21T01:19:08;20.73;;;8.60;;
58954;SDS011;45815;52.334;5.024;2023-11-21T01:21:34;18.25;;;8.77;;
58954;SDS011;45815;52.334;5.024;2023-11-21T01:23:59;19.65;;;9.63;;
58954;SDS011;45815;52.334;5.024;2023-11-21T01:26:25;18.23;;;8.43;;
58954;SDS011;45815;52.334;5.024;2023-11-21T01:28:50;18.48;;;7.82;;
58954;SDS011;45815;52.334;5.024;2023-11-21T01:31:15;16.52;;;8.02;;
58954;SDS011;45815;52.334;5.024;2023-11-21T01:33:41;22.83;;;9.20;;
58954;SDS011;45815;52.334;5.024;2023-11-21T01:36:06;16.77;;;9.05;;
58954;SDS011;45815;52.334;5.024;2023-11-21T01:38:32;16.83;;;9.23;;
58954;SDS011;45815;52.334;5.024;2023-11-21T01:40:59;21.75;;;9.20;;
58954;SDS011;45815;52.334;5.024;2023-11-21T01:43:26;16.65;;;8.82;;
58954;SDS011;45815;52.334;5.024;2023-11-21T01:45:55;18.17;;;10.82;;
58954;SDS011;45815;52.334;5.024;2023-11-21T01:48:24;19.73;;;9.15;;
58954;SDS011;45815;52.334;5.024;2023-11-21T01:50:50;14.95;;;7.82;;
58954;SDS011;45815;52.334;5.024;2023-11-21T01:53:16;21.75;;;8.82;;
58954;SDS011;45815;52.334;5.024;2023-11-21T01:55:41;17.30;;;8.70;;
58954;SDS011;45815;52.334;5.024;2023-11-21T01:58:07;18.42;;;8.77;;
58954;SDS011;45815;52.334;5.024;2023-11-21T02:00:33;17.52;;;8.60;;
58954;SDS011;45815;52.334;5.024;2023-11-21T02:02:59;19.23;;;8.60;;
58954;SDS011;45815;52.334;5.024;2023-11-21T02:05:24;17.67;;;8.38;;
58954;SDS011;45815;52.334;5.024;2023-11-21T02:07:51;17.58;;;8.73;;
58954;SDS011;45815;52.334;5.024;2023-11-21T02:10:17;22.48;;;9.15;;
58954;SDS011;45815;52.334;5.024;2023-11-21T02:12:47;16.83;;;7.70;;
58954;SDS011;45815;52.334;5.024;2023-11-21T02:15:15;21.48;;;7.85;;
58954;SDS011;45815;52.334;5.024;2023-11-21T02:17:45;21.77;;;8.10;;
58954;SDS011;45815;52.334;5.024;2023-11-21T02:20:16;16.30;;;7.87;;
58954;SDS011;45815;52.334;5.024;2023-11-21T02:22:43;13.73;;;7.90;;
58954;SDS011;45815;52.334;5.024;2023-11-21T02:25:25;14.68;;;7.93;;
58954;SDS011;45815;52.334;5.024;2023-11-21T02:27:55;19.17;;;8.25;;
58954;SDS011;45815;52.334;5.024;2023-11-21T02:30:22;16.45;;;7.50;;
58954;SDS011;45815;52.334;5.024;2023-11-21T02:32:48;16.75;;;8.57;;
58954;SDS011;45815;52.334;5.024;2023-11-21T02:35:14;16.88;;;6.97;;
58954;SDS011;45815;52.334;5.024;2023-11-21T02:37:41;16.60;;;6.97;;
58954;SDS011;45815;52.334;5.024;2023-11-21T02:40:08;17.95;;;7.70;;
58954;SDS011;45815;52.334;5.024;2023-11-21T02:42:35;16.40;;;7.40;;
58954;SDS011;45815;52.334;5.024;2023-11-21T02:45:00;17.35;;;7.72;;
58954;SDS011;45815;52.334;5.024;2023-11-21T02:47:26;16.65;;;7.70;;
58954;SDS011;45815;52.334;5.024;2023-11-21T02:49:51;18.27;;;7.65;;
58954;SDS011;45815;52.334;5.024;2023-11-21T02:52:17;25.80;;;8.55;;
58954;SDS011;45815;52.334;5.024;2023-11-21T02:54:44;16.77;;;8.07;;
58954;SDS011;45815;52.334;5.024;2023-11-21T02:57:09;16.10;;;7.78;;
58954;SDS011;45815;52.334;5.024;2023-11-21T02:59:35;13.93;;;7.50;;
58954;SDS011;45815;52.334;5.024;2023-11-21T03:02:00;21.77;;;8.57;;
58954;SDS011;45815;52.334;5.024;2023-11-21T03:04:26;18.92;;;6.97;;
58954;SDS011;45815;52.334;5.024;2023-11-21T03:06:52;17.92;;;7.40;;
58954;SDS011;45815;52.334;5.024;2023-11-21T03:09:17;17.92;;;7.88;;
58954;SDS011;45815;52.334;5.024;2023-11-21T03:11:43;16.60;;;7.47;;
58954;SDS011;45815;52.334;5.024;2023-11-21T03:14:08;18.92;;;7.70;;
58954;SDS011;45815;52.334;5.024;2023-11-21T03:16:33;14.88;;;7.03;;
58954;SDS011;45815;52.334;5.024;2023-11-21T03:18:59;19.25;;;7.70;;
58954;SDS011;45815;52.334;5.024;2023-11-21T03:21:25;20.15;;;7.57;;
58954;SDS011;45815;52.334;5.024;2023-11-21T03:23:51;21.25;;;8.32;;
58954;SDS011;45815;52.334;5.024;2023-11-21T03:26:17;18.15;;;7.47;;
58954;SDS011;45815;52.334;5.024;2023-11-21T03:28:43;20.52;;;7.40;;
58954;SDS011;45815;52.334;5.024;2023-11-21T03:31:08;19.45;;;7.60;;
58954;SDS011;45815;52.334;5.024;2023-11-21T03:33:34;18.02;;;7.40;;
58954;SDS011;45815;52.334;5.024;2023-11-21T03:36:00;16.85;;;8.32;;
58954;SDS011;45815;52.334;5.024;2023-11-21T03:38:25;13.05;;;7.00;;
58954;SDS011;45815;52.334;5.024;2023-11-21T03:40:51;15.43;;;7.60;;
58954;SDS011;45815;52.334;5.024;2023-11-21T03:43:16;18.10;;;7.95;;
58954;SDS011;45815;52.334;5.024;2023-11-21T03:45:42;24.60;;;7.47;;
58954;SDS011;45815;52.334;5.024;2023-11-21T03:48:09;18.85;;;7.60;;
58954;SDS011;45815;52.334;5.024;2023-11-21T03:50:37;17.35;;;7.50;;
58954;SDS011;45815;52.334;5.024;2023-11-21T03:53:02;16.17;;;7.68;;
58954;SDS011;45815;52.334;5.024;2023-11-21T03:55:29;17.88;;;7.38;;
58954;SDS011;45815;52.334;5.024;2023-11-21T03:57:56;17.13;;;7.80;;
58954;SDS011;45815;52.334;5.024;2023-11-21T04:00:22;15.73;;;7.43;;
58954;SDS011;45815;52.334;5.024;2023-11-21T04:02:47;14.98;;;7.82;;
58954;SDS011;45815;52.334;5.024;2023-11-21T04:05:13;17.80;;;7.15;;
58954;SDS011;45815;52.334;5.024;2023-11-21T04:07:38;18.40;;;7.15;;
58954;SDS011;45815;52.334;5.024;2023-11-21T04:10:05;18.15;;;7.70;;
58954;SDS011;45815;52.334;5.024;2023-11-21T04:12:33;15.68;;;7.82;;
58954;SDS011;45815;52.334;5.024;2023-11-21T04:14:59;21.50;;;6.85;;
58954;SDS011;45815;52.334;5.024;2023-11-21T04:17:25;19.45;;;7.10;;
58954;SDS011;45815;52.334;5.024;2023-11-21T04:19:50;15.50;;;8.45;;
58954;SDS011;45815;52.334;5.024;2023-11-21T04:22:16;22.15;;;8.10;;
58954;SDS011;45815;52.334;5.024;2023-11-21T04:24:41;17.77;;;7.75;;
58954;SDS011;45815;52.334;5.024;2023-11-21T04:27:06;19.20;;;7.50;;
58954;SDS011;45815;52.334;5.024;2023-11-21T04:29:32;21.45;;;7.85;;
58954;SDS011;45815;52.334;5.024;2023-11-21T04:31:58;20.25;;;7.82;;
58954;SDS011;45815;52.334;5.024;2023-11-21T04:34:23;18.52;;;7.97;;
58954;SDS011;45815;52.334;5.024;2023-11-21T04:36:49;18.25;;;7.60;;
58954;SDS011;45815;52.334;5.024;2023-11-21T04:39:15;16.85;;;7.15;;
58954;SDS011;45815;52.334;5.024;2023-11-21T04:41:40;17.73;;;8.30;;
58954;SDS011;45815;52.334;5.024;2023-11-21T04:44:06;14.60;;;6.93;;
58954;SDS011;45815;52.334;5.024;2023-11-21T04:46:31;16.65;;;7.65;;
58954;SDS011;45815;52.334;5.024;2023-11-21T04:48:57;17.60;;;7.25;;
58954;SDS011;45815;52.334;5.024;2023-11-21T04:51:23;18.17;;;7.63;;
58954;SDS011;45815;52.334;5.024;2023-11-21T04:53:48;15.02;;;6.85;;
58954;SDS011;45815;52.334;5.024;2023-11-21T04:56:14;18.65;;;7.88;;
58954;SDS011;45815;52.334;5.024;2023-11-21T04:58:41;20.52;;;7.28;;
58954;SDS011;45815;52.334;5.024;2023-11-21T05:01:07;19.55;;;7.57;;
58954;SDS011;45815;52.334;5.024;2023-11-21T05:03:33;17.30;;;7.38;;
58954;SDS011;45815;52.334;5.024;2023-11-21T05:05:59;19.50;;;7.32;;
58954;SDS011;45815;52.334;5.024;2023-11-21T05:08:25;14.93;;;6.50;;
58954;SDS011;45815;52.334;5.024;2023-11-21T05:10:51;12.63;;;5.32;;
58954;SDS011;45815;52.334;5.024;2023-11-21T05:13:17;15.32;;;5.75;;
58954;SDS011;45815;52.334;5.024;2023-11-21T05:15:43;13.75;;;5.90;;
58954;SDS011;45815;52.334;5.024;2023-11-21T05:18:09;13.55;;;4.85;;
58954;SDS011;45815;52.334;5.024;2023-11-21T05:20:35;11.77;;;4.30;;
58954;SDS011;45815;52.334;5.024;2023-11-21T05:23:01;12.15;;;4.10;;
58954;SDS011;45815;52.334;5.024;2023-11-21T05:25:26;9.75;;;3.17;;
58954;SDS011;45815;52.334;5.024;2023-11-21T05:27:52;9.63;;;3.05;;
58954;SDS011;45815;52.334;5.024;2023-11-21T05:30:18;8.27;;;3.00;;
58954;SDS011;45815;52.334;5.024;2023-11-21T05:32:44;7.25;;;2.97;;
58954;SDS011;45815;52.334;5.024;2023-11-21T05:35:09;11.80;;;3.20;;
58954;SDS011;45815;52.334;5.024;2023-11-21T05:37:41;7.38;;;3.03;;
58954;SDS011;45815;52.334;5.024;2023-11-21T05:40:07;9.68;;;3.20;;
58954;SDS011;45815;52.334;5.024;2023-11-21T05:42:33;7.95;;;2.85;;
58954;SDS011;45815;52.334;5.024;2023-11-21T05:45:00;12.82;;;2.92;;
58954;SDS011;45815;52.334;5.024;2023-11-21T05:47:41;8.45;;;3.15;;
58954;SDS011;45815;52.334;5.024;2023-11-21T05:50:08;12.07;;;3.50;;
58954;SDS011;45815;52.334;5.024;2023-11-21T05:52:40;8.93;;;3.10;;
58954;SDS011;45815;52.334;5.024;2023-11-21T05:55:06;11.85;;;4.63;;
58954;SDS011;45815;52.334;5.024;2023-11-21T05:57:36;12.77;;;3.38;;
58954;SDS011;45815;52.334;5.024;2023-11-21T06:00:03;13.23;;;3.60;;
58954;SDS011;45815;52.334;5.024;2023-11-21T06:02:39;13.48;;;4.07;;
58954;SDS011;45815;52.334;5.024;2023-11-21T06:05:06;11.45;;;3.88;;
58954;SDS011;45815;52.334;5.024;2023-11-21T06:07:32;17.55;;;4.43;;
58954;SDS011;45815;52.334;5.024;2023-11-21T06:09:58;10.98;;;3.70;;
58954;SDS011;45815;52.334;5.024;2023-11-21T06:12:24;10.32;;;3.55;;
58954;SDS011;45815;52.334;5.024;2023-11-21T06:14:50;9.43;;;3.25;;
58954;SDS011;45815;52.334;5.024;2023-11-21T06:17:16;11.02;;;3.03;;
58954;SDS011;45815;52.334;5.024;2023-11-21T06:19:42;8.93;;;3.67;;
58954;SDS011;45815;52.334;5.024;2023-11-21T06:22:10;7.60;;;3.38;;
58954;SDS011;45815;52.334;5.024;2023-11-21T06:24:36;12.88;;;3.47;;
58954;SDS011;45815;52.334;5.024;2023-11-21T06:27:03;8.38;;;3.60;;
58954;SDS011;45815;52.334;5.024;2023-11-21T06:29:29;13.05;;;3.25;;
58954;SDS011;45815;52.334;5.024;2023-11-21T06:31:55;11.10;;;3.72;;
58954;SDS011;45815;52.334;5.024;2023-11-21T06:34:20;13.23;;;3.80;;
58954;SDS011;45815;52.334;5.024;2023-11-21T06:36:47;12.00;;;4.03;;
58954;SDS011;45815;52.334;5.024;2023-11-21T06:39:12;11.18;;;4.03;;
58954;SDS011;45815;52.334;5.024;2023-11-21T06:41:40;10.63;;;4.20;;
58954;SDS011;45815;52.334;5.024;2023-11-21T06:44:05;12.30;;;3.95;;
58954;SDS011;45815;52.334;5.024;2023-11-21T06:46:31;10.60;;;4.43;;
58954;SDS011;45815;52.334;5.024;2023-11-21T06:48:56;14.05;;;4.88;;
58954;SDS011;45815;52.334;5.024;2023-11-21T06:51:22;10.70;;;3.90;;
58954;SDS011;45815;52.334;5.024;2023-11-21T06:53:47;12.23;;;4.60;;
58954;SDS011;45815;52.334;5.024;2023-11-21T06:56:18;11.43;;;4.30;;
58954;SDS011;45815;52.334;5.024;2023-11-21T06:58:44;12.30;;;4.53;;
58954;SDS011;45815;52.334;5.024;2023-11-21T07:01:11;11.93;;;4.60;;
58954;SDS011;45815;52.334;5.024;2023-11-21T07:03:36;13.20;;;4.70;;
58954;SDS011;45815;52.334;5.024;2023-11-21T07:06:02;14.88;;;4.53;;
58954;SDS011;45815;52.334;5.024;2023-11-21T07:08:28;13.48;;;4.78;;
58954;SDS011;45815;52.334;5.024;2023-11-21T07:10:54;10.30;;;4.10;;
58954;SDS011;45815;52.334;5.024;2023-11-21T07:13:19;11.35;;;4.55;;
58954;SDS011;45815;52.334;5.024;2023-11-21T07:15:44;13.65;;;4.93;;
58954;SDS011;45815;52.334;5.024;2023-11-21T07:18:10;12.25;;;4.88;;
58954;SDS011;45815;52.334;5.024;2023-11-21T07:20:36;14.00;;;5.20;;
58954;SDS011;45815;52.334;5.024;2023-11-21T07:23:02;11.77;;;5.50;;
58954;SDS011;45815;52.334;5.024;2023-11-21T07:25:28;12.60;;;5.22;;
58954;SDS011;45815;52.334;5.024;2023-11-21T07:27:54;14.70;;;5.72;;
58954;SDS011;45815;52.334;5.024;2023-11-21T07:30:20;11.63;;;4.53;;
58954;SDS011;45815;52.334;5.024;2023-11-21T07:32:47;15.40;;;5.50;;
58954;SDS011;45815;52.334;5.024;2023-11-21T07:35:13;13.85;;;5.70;;
58954;SDS011;45815;52.334;5.024;2023-11-21T07:37:38;12.15;;;5.13;;
58954;SDS011;45815;52.334;5.024;2023-11-21T07:40:04;14.93;;;5.20;;
58954;SDS011;45815;52.334;5.024;2023-11-21T07:42:30;14.23;;;5.00;;
58954;SDS011;45815;52.334;5.024;2023-11-21T07:44:55;11.05;;;4.93;;
58954;SDS011;45815;52.334;5.024;2023-11-21T07:47:21;12.63;;;4.80;;
58954;SDS011;45815;52.334;5.024;2023-11-21T07:49:47;10.88;;;4.30;;
58954;SDS011;45815;52.334;5.024;2023-11-21T07:52:13;9.00;;;3.53;;
58954;SDS011;45815;52.334;5.024;2023-11-21T07:54:41;10.10;;;3.72;;
58954;SDS011;45815;52.334;5.024;2023-11-21T07:57:07;13.55;;;4.40;;
58954;SDS011;45815;52.334;5.024;2023-11-21T07:59:32;8.48;;;3.47;;
58954;SDS011;45815;52.334;5.024;2023-11-21T08:01:58;8.77;;;3.63;;
58954;SDS011;45815;52.334;5.024;2023-11-21T08:04:23;11.52;;;3.88;;
58954;SDS011;45815;52.334;5.024;2023-11-21T08:06:48;11.02;;;4.20;;
58954;SDS011;45815;52.334;5.024;2023-11-21T08:09:14;11.13;;;4.43;;
58954;SDS011;45815;52.334;5.024;2023-11-21T08:11:40;10.35;;;4.60;;
58954;SDS011;45815;52.334;5.024;2023-11-21T08:14:06;12.68;;;4.93;;
58954;SDS011;45815;52.334;5.024;2023-11-21T08:16:31;13.63;;;4.82;;
58954;SDS011;45815;52.334;5.024;2023-11-21T08:18:57;12.30;;;4.80;;
58954;SDS011;45815;52.334;5.024;2023-11-21T08:21:22;8.68;;;3.80;;
58954;SDS011;45815;52.334;5.024;2023-11-21T08:23:54;12.18;;;4.38;;
58954;SDS011;45815;52.334;5.024;2023-11-21T08:26:21;10.77;;;4.70;;
58954;SDS011;45815;52.334;5.024;2023-11-21T08:28:47;13.20;;;5.22;;
58954;SDS011;45815;52.334;5.024;2023-11-21T08:31:12;10.07;;;4.75;;
58954;SDS011;45815;52.334;5.024;2023-11-21T08:33:38;12.57;;;5.20;;
58954;SDS011;45815;52.334;5.024;2023-11-21T08:36:06;16.50;;;6.32;;
58954;SDS011;45815;52.334;5.024;2023-11-21T08:38:33;18.15;;;6.40;;
58954;SDS011;45815;52.334;5.024;2023-11-21T08:41:02;13.43;;;5.78;;
58954;SDS011;45815;52.334;5.024;2023-11-21T08:43:32;15.45;;;6.22;;
58954;SDS011;45815;52.334;5.024;2023-11-21T08:46:00;13.30;;;6.05;;
58954;SDS011;45815;52.334;5.024;2023-11-21T08:48:26;13.75;;;5.78;;
58954;SDS011;45815;52.334;5.024;2023-11-21T08:50:53;12.13;;;5.55;;
58954;SDS011;45815;52.334;5.024;2023-11-21T08:53:19;12.63;;;5.43;;
58954;SDS011;45815;52.334;5.024;2023-11-21T08:55:44;14.10;;;5.22;;
58954;SDS011;45815;52.334;5.024;2023-11-21T08:58:10;12.93;;;5.43;;
58954;SDS011;45815;52.334;5.024;2023-11-21T09:00:37;14.63;;;5.60;;
58954;SDS011;45815;52.334;5.024;2023-11-21T09:03:05;9.93;;;4.85;;
58954;SDS011;45815;52.334;5.024;2023-11-21T09:05:33;11.30;;;5.32;;
58954;SDS011;45815;52.334;5.024;2023-11-21T09:07:59;14.80;;;5.70;;
58954;SDS011;45815;52.334;5.024;2023-11-21T09:10:24;12.73;;;5.28;;
58954;SDS011;45815;52.334;5.024;2023-11-21T09:12:50;14.38;;;5.55;;
58954;SDS011;45815;52.334;5.024;2023-11-21T09:15:17;12.15;;;5.47;;
58954;SDS011;45815;52.334;5.024;2023-11-21T09:17:43;11.05;;;5.75;;
58954;SDS011;45815;52.334;5.024;2023-11-21T09:20:09;14.38;;;6.63;;
58954;SDS011;45815;52.334;5.024;2023-11-21T09:22:35;13.65;;;6.80;;
58954;SDS011;45815;52.334;5.024;2023-11-21T09:25:01;15.07;;;6.93;;
58954;SDS011;45815;52.334;5.024;2023-11-21T09:27:31;15.98;;;8.95;;
58954;SDS011;45815;52.334;5.024;2023-11-21T09:29:56;15.95;;;7.53;;
58954;SDS011;45815;52.334;5.024;2023-11-21T09:32:23;15.27;;;7.40;;
58954;SDS011;45815;52.334;5.024;2023-11-21T09:34:49;18.15;;;7.72;;
58954;SDS011;45815;52.334;5.024;2023-11-21T09:37:15;16.80;;;8.43;;
58954;SDS011;45815;52.334;5.024;2023-11-21T09:39:41;14.00;;;7.68;;
58954;SDS011;45815;52.334;5.024;2023-11-21T09:42:12;14.48;;;7.60;;
58954;SDS011;45815;52.334;5.024;2023-11-21T09:47:26;17.08;;;8.10;;
58954;SDS011;45815;52.334;5.024;2023-11-21T09:49:53;15.27;;;7.53;;
58954;SDS011;45815;52.334;5.024;2023-11-21T09:52:24;14.88;;;8.13;;
58954;SDS011;45815;52.334;5.024;2023-11-21T09:54:51;17.63;;;8.02;;
58954;SDS011;45815;52.334;5.024;2023-11-21T09:57:19;16.50;;;7.85;;
58954;SDS011;45815;52.334;5.024;2023-11-21T09:59:46;16.55;;;7.60;;
58954;SDS011;45815;52.334;5.024;2023-11-21T10:02:15;17.60;;;8.20;;
58954;SDS011;45815;52.334;5.024;2023-11-21T10:04:43;16.00;;;7.35;;
58954;SDS011;45815;52.334;5.024;2023-11-21T10:07:10;16.95;;;8.23;;
58954;SDS011;45815;52.334;5.024;2023-11-21T10:09:37;17.80;;;7.80;;
58954;SDS011;45815;52.334;5.024;2023-11-21T10:12:03;19.38;;;7.95;;
58954;SDS011;45815;52.334;5.024;2023-11-21T10:14:33;18.20;;;7.75;;
58954;SDS011;45815;52.334;5.024;2023-11-21T10:17:01;18.33;;;8.00;;
58954;SDS011;45815;52.334;5.024;2023-11-21T10:19:26;18.63;;;7.95;;
58954;SDS011;45815;52.334;5.024;2023-11-21T10:21:52;19.48;;;8.18;;
58954;SDS011;45815;52.334;5.024;2023-11-21T10:24:19;16.52;;;8.02;;
58954;SDS011;45815;52.334;5.024;2023-11-21T10:26:44;18.50;;;8.13;;
58954;SDS011;45815;52.334;5.024;2023-11-21T10:29:14;15.43;;;8.45;;
58954;SDS011;45815;52.334;5.024;2023-11-21T10:31:42;16.25;;;8.20;;
58954;SDS011;45815;52.334;5.024;2023-11-21T10:34:25;18.75;;;8.40;;
58954;SDS011;45815;52.334;5.024;2023-11-21T10:36:52;16.75;;;7.45;;
58954;SDS011;45815;52.334;5.024;2023-11-21T10:39:21;16.38;;;8.23;;
58954;SDS011;45815;52.334;5.024;2023-11-21T10:41:49;18.88;;;8.48;;
58954;SDS011;45815;52.334;5.024;2023-11-21T10:44:18;17.95;;;7.93;;
58954;SDS011;45815;52.334;5.024;2023-11-21T10:46:53;17.17;;;9.30;;
58954;SDS011;45815;52.334;5.024;2023-11-21T10:49:22;21.92;;;10.55;;
58954;SDS011;45815;52.334;5.024;2023-11-21T10:51:50;24.17;;;9.57;;
58954;SDS011;45815;52.334;5.024;2023-11-21T10:54:21;23.45;;;10.55;;
58954;SDS011;45815;52.334;5.024;2023-11-21T10:56:53;23.35;;;11.45;;
58954;SDS011;45815;52.334;5.024;2023-11-21T10:59:22;24.42;;;10.40;;
58954;SDS011;45815;52.334;5.024;2023-11-21T11:01:50;23.63;;;11.02;;
58954;SDS011;45815;52.334;5.024;2023-11-21T11:04:18;22.02;;;10.35;;
58954;SDS011;45815;52.334;5.024;2023-11-21T11:06:44;20.80;;;10.15;;
58954;SDS011;45815;52.334;5.024;2023-11-21T11:09:27;19.00;;;9.45;;
58954;SDS011;45815;52.334;5.024;2023-11-21T11:11:52;20.38;;;9.02;;
58954;SDS011;45815;52.334;5.024;2023-11-21T11:14:19;21.10;;;10.23;;
58954;SDS011;45815;52.334;5.024;2023-11-21T11:16:45;21.00;;;9.70;;
58954;SDS011;45815;52.334;5.024;2023-11-21T11:19:10;21.65;;;9.98;;
58954;SDS011;45815;52.334;5.024;2023-11-21T11:21:39;22.92;;;10.70;;
58954;SDS011;45815;52.334;5.024;2023-11-21T11:32:28;20.63;;;9.52;;
58954;SDS011;45815;52.334;5.024;2023-11-21T11:35:19;15.43;;;8.00;;
58954;SDS011;45815;52.334;5.024;2023-11-21T11:37:51;15.05;;;8.10;;
58954;SDS011;45815;52.334;5.024;2023-11-21T11:40:18;14.27;;;7.18;;
58954;SDS011;45815;52.334;5.024;2023-11-21T11:43:00;15.07;;;6.90;;
58954;SDS011;45815;52.334;5.024;2023-11-21T11:45:33;15.55;;;7.88;;
58954;SDS011;45815;52.334;5.024;2023-11-21T11:48:00;14.57;;;7.25;;
58954;SDS011;45815;52.334;5.024;2023-11-21T11:50:27;15.30;;;8.10;;
58954;SDS011;45815;52.334;5.024;2023-11-21T11:52:53;17.08;;;8.00;;
58954;SDS011;45815;52.334;5.024;2023-11-21T11:55:20;17.70;;;8.90;;
58954;SDS011;45815;52.334;5.024;2023-11-21T11:57:47;16.65;;;8.70;;
58954;SDS011;45815;52.334;5.024;2023-11-21T12:02:52;16.35;;;8.63;;
58954;SDS011;45815;52.334;5.024;2023-11-21T12:05:20;15.00;;;8.20;;
58954;SDS011;45815;52.334;5.024;2023-11-21T12:10:18;15.52;;;8.88;;
58954;SDS011;45815;52.334;5.024;2023-11-21T12:12:50;12.85;;;7.88;;
58954;SDS011;45815;52.334;5.024;2023-11-21T12:15:19;16.80;;;8.93;;
58954;SDS011;45815;52.334;5.024;2023-11-21T12:17:46;17.13;;;8.75;;
58954;SDS011;45815;52.334;5.024;2023-11-21T12:20:13;16.08;;;8.63;;
58954;SDS011;45815;52.334;5.024;2023-11-21T12:25:14;17.25;;;9.25;;
58954;SDS011;45815;52.334;5.024;2023-11-21T12:27:44;16.65;;;9.05;;
58954;SDS011;45815;52.334;5.024;2023-11-21T12:30:17;18.15;;;9.82;;
58954;SDS011;45815;52.334;5.024;2023-11-21T12:32:44;20.38;;;10.23;;
58954;SDS011;45815;52.334;5.024;2023-11-21T12:35:13;18.67;;;10.23;;
58954;SDS011;45815;52.334;5.024;2023-11-21T12:37:39;16.88;;;9.68;;
58954;SDS011;45815;52.334;5.024;2023-11-21T12:40:06;19.63;;;9.80;;
58954;SDS011;45815;52.334;5.024;2023-11-21T12:42:46;17.13;;;9.95;;
58954;SDS011;45815;52.334;5.024;2023-11-21T12:50:37;18.40;;;10.52;;
58954;SDS011;45815;52.334;5.024;2023-11-21T12:53:04;19.13;;;10.85;;
58954;SDS011;45815;52.334;5.024;2023-11-21T12:55:31;19.65;;;10.38;;
58954;SDS011;45815;52.334;5.024;2023-11-21T12:57:58;19.17;;;10.80;;
58954;SDS011;45815;52.334;5.024;2023-11-21T13:00:34;18.77;;;10.82;;
58954;SDS011;45815;52.334;5.024;2023-11-21T13:03:02;20.45;;;11.77;;
58954;SDS011;45815;52.334;5.024;2023-11-21T13:08:00;19.85;;;9.40;;
58954;SDS011;45815;52.334;5.024;2023-11-21T13:10:28;21.73;;;9.98;;
58954;SDS011;45815;52.334;5.024;2023-11-21T13:13:00;18.30;;;9.40;;
58954;SDS011;45815;52.334;5.024;2023-11-21T13:15:27;18.15;;;10.25;;
58954;SDS011;45815;52.334;5.024;2023-11-21T13:17:53;16.48;;;8.75;;
58954;SDS011;45815;52.334;5.024;2023-11-21T13:20:21;18.63;;;9.60;;
58954;SDS011;45815;52.334;5.024;2023-11-21T13:22:56;17.85;;;9.52;;
58954;SDS011;45815;52.334;5.024;2023-11-21T13:25:24;19.20;;;9.63;;
58954;SDS011;45815;52.334;5.024;2023-11-21T13:27:53;17.33;;;9.18;;
58954;SDS011;45815;52.334;5.024;2023-11-21T13:30:19;19.83;;;9.73;;
58954;SDS011;45815;52.334;5.024;2023-11-21T13:32:52;15.50;;;8.25;;
58954;SDS011;45815;52.334;5.024;2023-11-21T13:35:18;18.13;;;8.85;;
58954;SDS011;45815;52.334;5.024;2023-11-21T13:37:55;16.92;;;9.18;;
58954;SDS011;45815;52.334;5.024;2023-11-21T13:40:24;15.57;;;9.00;;
58954;SDS011;45815;52.334;5.024;2023-11-21T13:42:54;18.42;;;9.65;;
58954;SDS011;45815;52.334;5.024;2023-11-21T13:47:50;17.05;;;9.57;;
58954;SDS011;45815;52.334;5.024;2023-11-21T13:50:20;18.45;;;9.55;;
58954;SDS011;45815;52.334;5.024;2023-11-21T13:52:52;19.65;;;10.52;;
58954;SDS011;45815;52.334;5.024;2023-11-21T13:55:18;18.83;;;10.35;;
58954;SDS011;45815;52.334;5.024;2023-11-21T13:57:44;17.25;;;10.48;;
58954;SDS011;45815;52.334;5.024;2023-11-21T14:00:13;17.30;;;10.10;;
58954;SDS011;45815;52.334;5.024;2023-11-21T14:02:58;16.27;;;9.48;;
58954;SDS011;45815;52.334;5.024;2023-11-21T14:05:26;20.58;;;10.60;;
58954;SDS011;45815;52.334;5.024;2023-11-21T14:07:54;18.75;;;10.77;;
58954;SDS011;45815;52.334;5.024;2023-11-21T14:10:30;22.05;;;11.50;;
58954;SDS011;45815;52.334;5.024;2023-11-21T14:13:05;16.60;;;9.55;;
58954;SDS011;45815;52.334;5.024;2023-11-21T14:15:31;20.40;;;11.57;;
58954;SDS011;45815;52.334;5.024;2023-11-21T14:17:58;20.80;;;11.90;;
58954;SDS011;45815;52.334;5.024;2023-11-21T14:20:25;16.52;;;9.68;;
58954;SDS011;45815;52.334;5.024;2023-11-21T14:22:50;16.90;;;9.85;;
58954;SDS011;45815;52.334;5.024;2023-11-21T14:25:16;14.40;;;8.63;;
58954;SDS011;45815;52.334;5.024;2023-11-21T14:27:42;15.48;;;8.73;;
58954;SDS011;45815;52.334;5.024;2023-11-21T14:30:08;16.08;;;9.55;;
58954;SDS011;45815;52.334;5.024;2023-11-21T14:32:37;15.00;;;8.07;;
58954;SDS011;45815;52.334;5.024;2023-11-21T14:35:03;15.02;;;9.88;;
58954;SDS011;45815;52.334;5.024;2023-11-21T14:37:29;15.07;;;8.93;;
58954;SDS011;45815;52.334;5.024;2023-11-21T14:39:54;15.45;;;9.35;;
58954;SDS011;45815;52.334;5.024;2023-11-21T14:42:20;13.45;;;8.15;;
58954;SDS011;45815;52.334;5.024;2023-11-21T14:44:50;12.77;;;7.75;;
58954;SDS011;45815;52.334;5.024;2023-11-21T14:47:17;12.98;;;7.75;;
58954;SDS011;45815;52.334;5.024;2023-11-21T14:49:44;14.38;;;8.10;;
58954;SDS011;45815;52.334;5.024;2023-11-21T14:52:21;12.98;;;8.55;;
58954;SDS011;45815;52.334;5.024;2023-11-21T14:55:00;13.82;;;8.60;;
58954;SDS011;45815;52.334;5.024;2023-11-21T14:57:46;12.70;;;8.20;;
58954;SDS011;45815;52.334;5.024;2023-11-21T15:00:18;16.15;;;9.02;;
58954;SDS011;45815;52.334;5.024;2023-11-21T15:03:00;13.23;;;8.60;;